Time;durP1;ratioP1;P1;durP2;ratioP2;P2;SDS_P1;SDS_P2;PMS_P1;PMS_P2;Temp;Humidity;BMP_temperature;BMP_pressure;BME280_temperature;BME280_humidity;BME280_pressure;Samples;Min_cycle;Max_cycle;Signal;HPM_P1;HPM_P2
2022/09/09 00:00:40;;;;;;;28.60;18.58;;;14.60;99.90;;;;;;5018186;28;20463;-64
2022/09/09 00:03:17;;;;;;;26.35;17.38;;;14.80;99.90;;;;;;5018055;28;20042;-64
2022/09/09 00:05:53;;;;;;;23.35;17.60;;;14.70;99.90;;;;;;5018157;28;20476;-65
2022/09/09 00:08:22;;;;;;;28.30;16.83;;;14.60;99.90;;;;;;5035163;28;20087;-64
2022/09/09 00:10:58;;;;;;;24.17;18.42;;;14.80;99.90;;;;;;5017799;28;20345;-64
2022/09/09 00:13:48;;;;;;;25.20;17.70;;;14.80;99.90;;;;;;5035051;28;20163;-64
2022/09/09 00:16:27;;;;;;;23.13;15.45;;;14.70;99.90;;;;;;5035195;28;20064;-64
2022/09/09 00:19:04;;;;;;;20.80;15.65;;;14.70;99.90;;;;;;5035140;28;20041;-64
2022/09/09 00:21:39;;;;;;;22.65;15.48;;;14.60;99.90;;;;;;5025765;28;20080;-66
2022/09/09 00:24:15;;;;;;;22.83;15.13;;;14.90;99.90;;;;;;5035060;28;20045;-64
2022/09/09 00:26:50;;;;;;;20.90;15.70;;;14.90;99.90;;;;;;5034689;28;20042;-63
2022/09/09 00:29:47;;;;;;;22.10;16.25;;;14.70;99.90;;;;;;5035113;28;20444;-66
2022/09/09 00:32:18;;;;;;;24.20;14.30;;;14.70;99.90;;;;;;5027290;28;20048;-64
2022/09/09 00:34:57;;;;;;;24.17;16.05;;;14.60;99.90;;;;;;5034955;28;20053;-64
2022/09/09 00:37:25;;;;;;;23.48;15.75;;;14.70;99.90;;;;;;5034689;28;20049;-64
2022/09/09 00:39:56;;;;;;;21.23;15.15;;;14.60;99.90;;;;;;5034636;28;20053;-63
2022/09/09 00:42:33;;;;;;;20.17;15.30;;;14.80;99.90;;;;;;5017726;28;20452;-64
2022/09/09 00:45:31;;;;;;;23.55;15.45;;;14.80;99.90;;;;;;5034819;28;20064;-65
2022/09/09 00:47:58;;;;;;;27.02;17.08;;;14.50;99.90;;;;;;5034602;28;20080;-64
2022/09/09 00:50:37;;;;;;;23.58;16.13;;;14.50;99.90;;;;;;5034041;28;20049;-63
2022/09/09 00:53:33;;;;;;;24.10;15.60;;;14.50;99.90;;;;;;5008558;28;20140;-65
2022/09/09 00:56:23;;;;;;;23.88;16.17;;;14.60;99.90;;;;;;5025294;28;20069;-62
2022/09/09 00:59:04;;;;;;;19.35;15.27;;;14.50;99.90;;;;;;5034097;28;20123;-65
2022/09/09 01:01:30;;;;;;;24.00;15.88;;;14.70;99.90;;;;;;5034474;28;20045;-65
2022/09/09 01:03:59;;;;;;;22.52;14.80;;;14.50;99.90;;;;;;5034414;28;20128;-65
2022/09/09 01:06:33;;;;;;;22.95;15.90;;;14.40;99.90;;;;;;5024532;28;20052;-63
2022/09/09 01:09:36;;;;;;;21.67;16.42;;;14.60;99.90;;;;;;5033875;28;20451;-63
2022/09/09 01:12:24;;;;;;;23.52;16.17;;;14.70;99.90;;;;;;5016817;28;20491;-63
2022/09/09 01:14:54;;;;;;;22.00;16.48;;;14.40;99.90;;;;;;5034453;28;20041;-64
2022/09/09 01:17:34;;;;;;;26.48;16.38;;;14.50;99.90;;;;;;5033921;28;20490;-63
2022/09/09 01:20:26;;;;;;;22.98;16.60;;;14.50;99.90;;;;;;5024746;28;20372;-64
2022/09/09 01:23:26;;;;;;;26.00;17.63;;;14.40;99.90;;;;;;5035364;28;20060;-64
2022/09/09 01:26:11;;;;;;;25.48;15.77;;;14.60;99.90;;;;;;5044695;28;20452;-64
2022/09/09 01:28:38;;;;;;;21.77;15.77;;;14.60;99.90;;;;;;5023540;28;20053;-65
2022/09/09 01:31:07;;;;;;;29.20;17.17;;;14.60;99.90;;;;;;5041016;28;20053;-65
2022/09/09 01:33:33;;;;;;;24.40;16.30;;;14.60;99.90;;;;;;5022449;28;20057;-63
2022/09/09 01:36:11;;;;;;;22.35;15.60;;;14.60;99.90;;;;;;5023368;28;20041;-64
2022/09/09 01:38:37;;;;;;;27.20;16.90;;;14.50;99.90;;;;;;5023033;28;20053;-66
2022/09/09 01:41:03;;;;;;;21.50;16.33;;;14.40;99.90;;;;;;5022134;28;20049;-64
2022/09/09 01:43:29;;;;;;;22.38;16.30;;;14.70;99.90;;;;;;5023473;28;20077;-64
2022/09/09 01:45:58;;;;;;;21.83;15.57;;;14.40;99.90;;;;;;5006690;28;20115;-64
2022/09/09 01:48:25;;;;;;;24.67;16.60;;;14.60;99.90;;;;;;5046232;28;20041;-63
2022/09/09 01:50:51;;;;;;;22.67;16.23;;;14.60;99.90;;;;;;5054627;28;20076;-64
2022/09/09 01:53:18;;;;;;;23.13;15.80;;;14.40;99.90;;;;;;5038720;28;20087;-65
2022/09/09 01:56:18;;;;;;;22.02;15.85;;;14.60;99.90;;;;;;5053600;28;20036;-64
2022/09/09 01:59:07;;;;;;;20.95;15.90;;;14.50;99.90;;;;;;5054590;28;20475;-63
2022/09/09 02:01:50;;;;;;;22.40;17.85;;;14.60;99.90;;;;;;5037149;28;20063;-65
2022/09/09 02:04:41;;;;;;;25.33;16.80;;;14.60;99.90;;;;;;5054873;28;20045;-63
2022/09/09 02:07:25;;;;;;;27.58;17.52;;;14.50;99.90;;;;;;5054746;28;20183;-66
2022/09/09 02:10:00;;;;;;;22.38;16.05;;;14.40;99.90;;;;;;5055817;28;20190;-65
2022/09/09 02:12:28;;;;;;;22.98;17.02;;;14.50;99.90;;;;;;5046106;28;20083;-64
2022/09/09 02:15:06;;;;;;;21.05;16.55;;;14.30;99.90;;;;;;5054556;28;20170;-63
2022/09/09 02:17:36;;;;;;;24.55;16.40;;;14.60;99.90;;;;;;5054567;28;20056;-64
2022/09/09 02:20:12;;;;;;;20.30;16.17;;;14.50;99.90;;;;;;5056022;28;20119;-64
2022/09/09 02:22:41;;;;;;;24.38;18.38;;;14.30;99.90;;;;;;5054409;28;20056;-64
2022/09/09 02:25:10;;;;;;;27.80;17.65;;;14.30;99.90;;;;;;5054283;28;20072;-64
2022/09/09 02:27:35;;;;;;;25.98;18.77;;;14.40;99.90;;;;;;5038540;28;20452;-64
2022/09/09 02:30:03;;;;;;;24.05;16.42;;;14.30;99.90;;;;;;5054222;28;20044;-64
2022/09/09 02:32:32;;;;;;;29.48;17.35;;;14.50;99.90;;;;;;5054546;28;20045;-64
2022/09/09 02:35:06;;;;;;;25.70;17.55;;;14.40;99.90;;;;;;5045632;28;20124;-65
2022/09/09 02:37:36;;;;;;;27.88;18.65;;;14.20;99.90;;;;;;5054236;28;20037;-64
2022/09/09 02:40:06;;;;;;;21.45;16.38;;;14.40;99.90;;;;;;5036391;28;20045;-62
2022/09/09 02:42:37;;;;;;;25.55;17.02;;;14.20;99.90;;;;;;5055734;28;20048;-63
2022/09/09 02:45:04;;;;;;;23.67;17.80;;;14.20;99.90;;;;;;5053824;28;20392;-64
2022/09/09 02:47:55;;;;;;;23.45;17.70;;;14.40;99.90;;;;;;5028571;28;20064;-65
2022/09/09 02:50:43;;;;;;;26.60;18.08;;;14.30;99.90;;;;;;5024206;28;20061;-64
2022/09/09 02:53:17;;;;;;;26.05;18.17;;;14.20;99.90;;;;;;5029523;28;20080;-64
2022/09/09 02:56:04;;;;;;;24.58;19.27;;;14.40;99.90;;;;;;5054965;28;20066;-64
2022/09/09 02:58:30;;;;;;;24.63;18.25;;;14.20;99.90;;;;;;5053736;28;20041;-64
2022/09/09 03:00:57;;;;;;;25.88;17.45;;;14.40;99.90;;;;;;5054426;28;20099;-63
2022/09/09 03:03:23;;;;;;;23.75;19.00;;;14.20;99.90;;;;;;5037398;28;20102;-63
2022/09/09 03:05:49;;;;;;;27.25;18.88;;;14.50;99.90;;;;;;5053207;28;20775;-65
2022/09/09 03:08:15;;;;;;;29.85;18.85;;;14.30;99.90;;;;;;5037576;28;20045;-65
2022/09/09 03:10:41;;;;;;;26.73;19.10;;;14.40;99.90;;;;;;5036123;28;20528;-64
2022/09/09 03:13:07;;;;;;;25.17;17.83;;;14.20;99.90;;;;;;5053593;28;20133;-65
2022/09/09 03:15:34;;;;;;;26.05;18.50;;;14.20;99.90;;;;;;5037857;28;20048;-65
2022/09/09 03:18:00;;;;;;;25.85;18.60;;;14.20;99.90;;;;;;5053365;28;20048;-64
2022/09/09 03:20:28;;;;;;;25.13;18.77;;;14.40;99.90;;;;;;5053749;28;20349;-64
2022/09/09 03:22:55;;;;;;;24.13;19.27;;;14.40;99.90;;;;;;5037491;28;20122;-65
2022/09/09 03:25:23;;;;;;;26.88;18.63;;;14.40;99.90;;;;;;5052684;28;20467;-65
2022/09/09 03:27:50;;;;;;;30.13;18.33;;;14.40;99.90;;;;;;5054637;28;20060;-64
2022/09/09 03:30:15;;;;;;;25.45;17.40;;;14.40;99.90;;;;;;5048187;28;20107;-64
2022/09/09 03:32:41;;;;;;;28.08;17.17;;;14.30;99.90;;;;;;5038702;28;20049;-67
2022/09/09 03:35:07;;;;;;;23.17;16.10;;;14.40;99.90;;;;;;5037477;28;20152;-65
2022/09/09 03:37:33;;;;;;;20.48;16.90;;;14.40;99.90;;;;;;5038537;28;20368;-65
2022/09/09 03:39:59;;;;;;;20.52;17.83;;;14.40;99.90;;;;;;5038417;28;20041;-66
2022/09/09 03:42:25;;;;;;;22.98;16.23;;;14.40;99.90;;;;;;5020026;28;20049;-63
2022/09/09 03:44:51;;;;;;;27.77;17.63;;;14.30;99.90;;;;;;5038420;28;20451;-65
2022/09/09 03:47:21;;;;;;;29.80;16.77;;;14.40;99.90;;;;;;5036957;28;20046;-65
2022/09/09 03:49:48;;;;;;;20.08;15.80;;;14.20;99.90;;;;;;5030171;28;20409;-65
2022/09/09 03:52:14;;;;;;;23.73;15.55;;;14.40;99.90;;;;;;5038552;28;20102;-63
2022/09/09 03:54:42;;;;;;;25.85;16.30;;;14.40;99.90;;;;;;5037234;28;20045;-65
2022/09/09 03:57:08;;;;;;;21.20;15.27;;;14.20;99.90;;;;;;5038443;28;20042;-66
2022/09/09 03:59:34;;;;;;;19.80;15.63;;;14.40;99.90;;;;;;5038456;28;20132;-63
2022/09/09 04:02:01;;;;;;;19.15;14.93;;;14.40;99.90;;;;;;5037096;28;20051;-64
2022/09/09 04:04:26;;;;;;;23.42;16.05;;;14.50;99.90;;;;;;5038176;28;20085;-64
2022/09/09 04:06:53;;;;;;;22.48;14.32;;;14.50;99.90;;;;;;5036944;28;20076;-64
2022/09/09 04:09:19;;;;;;;19.83;13.68;;;14.20;99.90;;;;;;5037602;28;20045;-63
2022/09/09 04:11:45;;;;;;;19.08;13.10;;;14.40;99.90;;;;;;5020676;28;20120;-65
2022/09/09 04:14:10;;;;;;;20.50;14.77;;;14.20;99.90;;;;;;5037084;28;20063;-65
2022/09/09 04:16:37;;;;;;;19.70;15.25;;;14.40;99.90;;;;;;5020276;28;20141;-64
2022/09/09 04:19:04;;;;;;;19.38;14.07;;;14.40;99.90;;;;;;5037539;28;20400;-64
2022/09/09 04:21:30;;;;;;;20.23;14.82;;;14.40;99.90;;;;;;5019479;28;20071;-64
2022/09/09 04:23:56;;;;;;;18.15;12.98;;;14.40;99.90;;;;;;5037898;28;20406;-64
2022/09/09 04:26:22;;;;;;;19.73;13.55;;;14.30;99.90;;;;;;5034904;28;20053;-65
2022/09/09 04:28:48;;;;;;;22.65;14.65;;;14.20;99.90;;;;;;5035090;28;20057;-64
2022/09/09 04:31:21;;;;;;;19.60;13.43;;;14.40;99.90;;;;;;5017411;28;20107;-63
2022/09/09 04:33:46;;;;;;;17.35;13.70;;;14.30;99.90;;;;;;5035344;28;20088;-63
2022/09/09 04:36:12;;;;;;;17.05;13.32;;;14.30;99.90;;;;;;5017629;28;20467;-65
2022/09/09 04:38:39;;;;;;;19.70;13.13;;;14.40;99.90;;;;;;5017090;28;20652;-64
2022/09/09 04:41:05;;;;;;;22.40;13.77;;;14.40;99.90;;;;;;5017553;28;20038;-64
2022/09/09 04:43:31;;;;;;;17.52;12.75;;;14.10;99.90;;;;;;5034298;28;20103;-64
2022/09/09 04:45:59;;;;;;;18.65;12.70;;;14.20;99.90;;;;;;5034797;28;20049;-65
2022/09/09 04:48:25;;;;;;;16.63;11.82;;;14.40;99.90;;;;;;5034537;28;20111;-63
2022/09/09 04:50:55;;;;;;;19.30;11.95;;;14.30;99.90;;;;;;5034665;28;20095;-66
2022/09/09 04:53:21;;;;;;;17.48;11.90;;;14.30;99.90;;;;;;5034394;28;20042;-62
2022/09/09 04:55:48;;;;;;;22.42;12.40;;;14.20;99.90;;;;;;5016409;28;20052;-63
2022/09/09 04:58:14;;;;;;;20.90;12.82;;;14.20;99.90;;;;;;5034298;28;20052;-64
2022/09/09 05:00:39;;;;;;;17.90;13.93;;;14.20;99.90;;;;;;5034390;28;20045;-65
2022/09/09 05:03:05;;;;;;;20.45;13.27;;;14.30;99.90;;;;;;5034356;28;20459;-64
2022/09/09 05:05:36;;;;;;;23.30;12.77;;;14.20;99.90;;;;;;5034249;28;20037;-63
2022/09/09 05:08:05;;;;;;;22.38;14.10;;;14.30;99.90;;;;;;5034851;28;20121;-66
2022/09/09 05:10:31;;;;;;;17.65;12.63;;;14.40;99.90;;;;;;5034351;28;20065;-64
2022/09/09 05:12:57;;;;;;;17.38;12.88;;;14.30;99.90;;;;;;5034555;28;20110;-63
2022/09/09 05:15:23;;;;;;;20.13;12.95;;;14.30;99.90;;;;;;5034482;28;20503;-64
2022/09/09 05:17:48;;;;;;;17.52;12.50;;;14.50;99.90;;;;;;5017002;28;20049;-63
2022/09/09 05:20:14;;;;;;;17.23;12.10;;;14.50;99.90;;;;;;5017019;28;20456;-64
2022/09/09 05:22:40;;;;;;;18.77;12.70;;;14.50;99.90;;;;;;5034191;28;20068;-64
2022/09/09 05:25:07;;;;;;;19.10;12.55;;;14.30;99.90;;;;;;5021195;28;20053;-66
2022/09/09 05:27:34;;;;;;;18.17;12.38;;;14.50;99.90;;;;;;5052736;28;20051;-65
2022/09/09 05:30:00;;;;;;;17.73;13.02;;;14.40;99.90;;;;;;5033600;28;20077;-63
2022/09/09 05:32:25;;;;;;;23.40;13.65;;;14.50;99.90;;;;;;5051934;28;20107;-64
2022/09/09 05:34:52;;;;;;;22.77;13.30;;;14.30;99.90;;;;;;5052124;28;20064;-64
2022/09/09 05:37:18;;;;;;;17.92;12.45;;;14.30;99.90;;;;;;5051494;28;20045;-64
2022/09/09 05:39:44;;;;;;;20.80;13.30;;;14.40;99.90;;;;;;5035884;28;20151;-65
2022/09/09 05:42:09;;;;;;;19.55;12.75;;;14.30;99.90;;;;;;5050644;28;20041;-64
2022/09/09 05:44:35;;;;;;;21.20;13.00;;;14.50;99.90;;;;;;5050756;28;20087;-64
2022/09/09 05:47:01;;;;;;;20.23;13.60;;;14.40;99.90;;;;;;5035131;28;20051;-64
2022/09/09 05:49:26;;;;;;;21.25;14.38;;;14.30;99.90;;;;;;5033319;28;20124;-64
2022/09/09 05:51:52;;;;;;;23.50;13.80;;;14.30;99.90;;;;;;5052473;28;20446;-66
2022/09/09 05:54:18;;;;;;;21.27;14.00;;;14.40;99.90;;;;;;5051741;28;20113;-63
2022/09/09 05:56:44;;;;;;;22.25;14.55;;;14.50;99.90;;;;;;5051040;28;20340;-64
2022/09/09 05:59:11;;;;;;;22.58;14.80;;;14.40;99.90;;;;;;5052649;28;20064;-65
2022/09/09 06:01:40;;;;;;;21.30;15.55;;;14.60;99.90;;;;;;5033302;28;20466;-64
2022/09/09 06:04:06;;;;;;;21.75;15.38;;;14.50;99.90;;;;;;5051096;28;20041;-66
2022/09/09 06:06:39;;;;;;;24.45;15.20;;;14.50;99.90;;;;;;5035221;28;20087;-67
2022/09/09 06:09:09;;;;;;;25.98;15.85;;;14.60;99.90;;;;;;5051345;28;20037;-66
2022/09/09 06:11:35;;;;;;;21.95;15.25;;;14.50;99.90;;;;;;5037093;28;20114;-65
2022/09/09 06:14:02;;;;;;;22.70;16.30;;;14.60;99.90;;;;;;5056325;28;20040;-67
2022/09/09 06:16:29;;;;;;;23.58;16.60;;;14.60;99.90;;;;;;5054555;28;20057;-65
2022/09/09 06:18:56;;;;;;;22.38;16.73;;;14.70;99.90;;;;;;5055566;28;20041;-65
2022/09/09 06:21:24;;;;;;;23.25;16.00;;;14.60;99.90;;;;;;5055514;28;20037;-65
2022/09/09 06:23:53;;;;;;;22.73;15.82;;;14.70;99.90;;;;;;5049615;28;20413;-66
2022/09/09 06:26:22;;;;;;;24.02;17.92;;;14.50;99.90;;;;;;5056252;28;20481;-66
2022/09/09 06:28:49;;;;;;;26.85;18.50;;;14.70;99.90;;;;;;5049169;28;20084;-65
2022/09/09 06:31:17;;;;;;;26.67;16.85;;;14.80;99.90;;;;;;5041030;28;20049;-66
2022/09/09 06:33:44;;;;;;;23.80;17.48;;;14.80;99.90;;;;;;5056027;28;20071;-65
2022/09/09 06:36:14;;;;;;;21.75;16.88;;;14.90;99.90;;;;;;5036284;28;20466;-65
2022/09/09 06:38:40;;;;;;;23.17;16.38;;;14.80;99.90;;;;;;5054154;28;20049;-65
2022/09/09 06:41:11;;;;;;;21.73;15.60;;;14.70;99.90;;;;;;5056134;28;20079;-67
2022/09/09 06:43:36;;;;;;;21.75;14.52;;;15.00;99.90;;;;;;5054047;28;20100;-66
2022/09/09 06:46:17;;;;;;;22.30;14.38;;;14.70;99.90;;;;;;5054298;28;20037;-64
2022/09/09 06:48:46;;;;;;;21.13;15.82;;;14.90;99.90;;;;;;5055387;28;20063;-64
2022/09/09 06:51:14;;;;;;;22.05;15.00;;;14.90;99.90;;;;;;5053856;28;20036;-66
2022/09/09 06:53:44;;;;;;;24.08;15.38;;;14.80;99.90;;;;;;5036136;28;20071;-63
2022/09/09 06:56:09;;;;;;;20.85;15.98;;;15.00;99.90;;;;;;5055383;28;20052;-65
2022/09/09 06:58:44;;;;;;;21.75;16.40;;;15.10;99.90;;;;;;5053731;28;20036;-68
2022/09/09 07:01:12;;;;;;;20.95;15.75;;;14.80;99.90;;;;;;5053598;28;20048;-67
2022/09/09 07:03:39;;;;;;;19.15;14.95;;;15.00;99.90;;;;;;5055278;28;20472;-65
2022/09/09 07:06:06;;;;;;;21.90;16.10;;;15.00;99.90;;;;;;5053515;28;20041;-65
2022/09/09 07:08:31;;;;;;;20.48;15.63;;;15.00;99.90;;;;;;5053803;28;20146;-66
2022/09/09 07:11:05;;;;;;;20.75;14.85;;;15.00;99.90;;;;;;5055175;28;20482;-66
2022/09/09 07:13:31;;;;;;;20.97;14.63;;;15.10;99.90;;;;;;5035745;28;20048;-66
2022/09/09 07:16:10;;;;;;;20.45;13.73;;;15.10;99.90;;;;;;5053727;28;20074;-69
2022/09/09 07:18:36;;;;;;;18.05;12.68;;;14.90;99.90;;;;;;5045647;28;20447;-65
2022/09/09 07:21:03;;;;;;;19.73;13.25;;;14.90;99.90;;;;;;5034648;28;20048;-65
2022/09/09 07:23:30;;;;;;;20.38;13.55;;;15.20;99.90;;;;;;5053823;28;20132;-65
2022/09/09 07:25:57;;;;;;;17.67;13.05;;;15.00;99.90;;;;;;5036251;28;20049;-66
2022/09/09 07:28:24;;;;;;;16.98;12.48;;;15.00;99.90;;;;;;5052073;28;20367;-65
2022/09/09 07:30:57;;;;;;;17.08;13.27;;;15.00;99.90;;;;;;5053652;28;20044;-65
2022/09/09 07:33:23;;;;;;;16.13;12.93;;;15.30;99.90;;;;;;5013058;28;20041;-66
2022/09/09 07:35:50;;;;;;;19.90;13.25;;;15.20;99.90;;;;;;5037676;28;20041;-68
2022/09/09 07:38:15;;;;;;;18.48;12.88;;;15.30;99.90;;;;;;5036823;28;20124;-66
2022/09/09 07:40:41;;;;;;;15.80;12.15;;;15.10;99.90;;;;;;5037667;28;20124;-67
2022/09/09 07:43:07;;;;;;;17.25;12.07;;;15.40;99.90;;;;;;5037490;28;20049;-68
2022/09/09 07:45:34;;;;;;;17.77;12.57;;;15.40;99.90;;;;;;5036458;28;20045;-67
2022/09/09 07:48:00;;;;;;;17.85;11.68;;;15.30;99.90;;;;;;5019837;28;20041;-67
2022/09/09 07:50:25;;;;;;;18.63;13.10;;;15.50;99.90;;;;;;5036557;28;20057;-66
2022/09/09 07:52:53;;;;;;;14.98;11.60;;;15.50;99.90;;;;;;5037037;28;20120;-66
2022/09/09 07:55:19;;;;;;;14.35;10.50;;;15.50;99.90;;;;;;5020011;28;20053;-66
2022/09/09 07:57:45;;;;;;;21.25;11.02;;;15.60;99.90;;;;;;5036257;28;20372;-66
2022/09/09 08:00:11;;;;;;;17.88;11.13;;;15.50;99.90;;;;;;5037326;28;20033;-68
2022/09/09 08:02:37;;;;;;;16.20;10.88;;;15.70;99.90;;;;;;5037307;28;20115;-68
2022/09/09 08:05:03;;;;;;;14.55;10.45;;;15.50;99.90;;;;;;5036101;28;20077;-66
2022/09/09 08:07:29;;;;;;;15.68;9.95;;;15.60;99.90;;;;;;5037331;28;20060;-68
2022/09/09 08:09:55;;;;;;;16.05;10.05;;;15.80;99.90;;;;;;5018663;28;20112;-67
2022/09/09 08:12:21;;;;;;;17.35;11.30;;;15.90;99.90;;;;;;5036800;28;20053;-66
2022/09/09 08:14:48;;;;;;;15.02;10.30;;;15.90;99.90;;;;;;5036993;28;20052;-67
2022/09/09 08:17:13;;;;;;;14.40;10.35;;;16.00;99.90;;;;;;5035823;28;20108;-66
2022/09/09 08:19:39;;;;;;;13.88;9.50;;;16.10;99.90;;;;;;5037174;28;20473;-66
2022/09/09 08:22:07;;;;;;;17.02;9.95;;;16.10;99.90;;;;;;5036963;28;20419;-66
2022/09/09 08:24:33;;;;;;;13.90;8.40;;;16.00;99.90;;;;;;4999540;28;1043794;-66
2022/09/09 08:26:59;;;;;;;13.13;8.80;;;16.30;99.90;;;;;;5017584;28;20052;-64
2022/09/09 08:29:25;;;;;;;14.98;9.48;;;16.30;99.90;;;;;;5034773;28;20041;-65
2022/09/09 08:31:57;;;;;;;13.13;9.00;;;16.20;99.90;;;;;;5034809;28;20072;-66
2022/09/09 08:34:26;;;;;;;13.45;9.23;;;16.50;99.90;;;;;;5034785;28;20041;-66
2022/09/09 08:36:51;;;;;;;14.25;9.90;;;16.50;99.90;;;;;;5030960;28;20061;-66
2022/09/09 08:39:19;;;;;;;14.25;8.55;;;16.40;99.90;;;;;;5033120;28;20041;-66
2022/09/09 08:42:25;;;;;;;13.40;9.13;;;16.50;99.90;;;;;;5034222;28;20384;-67
2022/09/09 08:45:37;;;;;;;11.88;9.15;;;16.60;99.90;;;;;;5016720;28;20049;-65
2022/09/09 08:48:10;;;;;;;13.52;8.65;;;16.50;99.90;;;;;;5023554;28;20513;-67
2022/09/09 08:50:38;;;;;;;13.65;8.68;;;16.60;99.90;;;;;;5033435;28;20049;-64
2022/09/09 08:53:20;;;;;;;14.75;8.57;;;16.60;99.90;;;;;;5046547;28;20049;-65
2022/09/09 08:55:58;;;;;;;14.00;8.68;;;16.70;99.90;;;;;;5037395;28;20048;-65
2022/09/09 08:58:30;;;;;;;13.88;8.32;;;16.90;99.90;;;;;;5037459;28;20049;-67
2022/09/09 09:01:08;;;;;;;15.60;8.18;;;16.90;99.90;;;;;;5054130;28;20098;-66
2022/09/09 09:03:50;;;;;;;17.35;7.93;;;17.10;99.90;;;;;;5046862;28;20163;-65
2022/09/09 09:06:22;;;;;;;13.52;7.80;;;17.10;99.90;;;;;;5034798;28;20060;-67
2022/09/09 09:09:01;;;;;;;15.93;7.97;;;17.10;99.90;;;;;;5017460;28;20057;-66
2022/09/09 09:11:26;;;;;;;13.85;7.95;;;17.20;99.90;;;;;;5017711;28;20468;-65
2022/09/09 09:14:04;;;;;;;13.30;7.53;;;17.20;99.90;;;;;;5028206;28;20051;-66
2022/09/09 09:16:39;;;;;;;13.68;7.80;;;17.10;99.90;;;;;;4997852;28;20461;-66
2022/09/09 09:19:12;;;;;;;13.02;7.85;;;16.90;99.90;;;;;;5007220;28;20120;-66
2022/09/09 09:21:54;;;;;;;12.43;7.03;;;17.10;99.90;;;;;;5017493;28;20057;-66
2022/09/09 09:24:42;;;;;;;12.98;7.43;;;16.90;99.90;;;;;;5034748;28;20045;-67
2022/09/09 09:27:17;;;;;;;14.93;8.05;;;16.90;99.90;;;;;;5043723;28;20501;-68
2022/09/09 09:29:44;;;;;;;15.23;8.45;;;16.90;99.90;;;;;;5054172;28;20178;-68
2022/09/09 09:32:18;;;;;;;11.95;7.68;;;17.00;99.90;;;;;;5037255;28;20041;-67
2022/09/09 09:34:50;;;;;;;11.90;8.30;;;17.00;99.90;;;;;;5017172;28;20073;-69
2022/09/09 09:37:22;;;;;;;12.38;7.90;;;17.00;99.90;;;;;;5034136;28;20077;-66
2022/09/09 09:39:49;;;;;;;8.50;7.43;;;17.10;99.90;;;;;;5019149;28;20637;-67
2022/09/09 09:42:17;;;;;;;12.55;7.45;;;17.10;99.90;;;;;;5033260;28;20060;-66
2022/09/09 09:44:43;;;;;;;15.35;7.35;;;17.20;99.90;;;;;;5036933;28;20064;-66
2022/09/09 09:47:23;;;;;;;8.82;6.00;;;17.20;99.90;;;;;;5038581;28;20041;-66
2022/09/09 09:50:02;;;;;;;12.95;6.55;;;17.20;99.90;;;;;;5041218;28;20045;-68
2022/09/09 09:52:29;;;;;;;9.88;5.70;;;17.30;99.90;;;;;;5058186;28;20099;-65
2022/09/09 09:54:59;;;;;;;10.55;6.25;;;17.40;99.90;;;;;;5058075;28;20399;-66
2022/09/09 09:57:29;;;;;;;18.67;5.55;;;17.50;99.90;;;;;;5058235;28;20396;-68
2022/09/09 10:00:16;;;;;;;10.45;5.53;;;17.70;99.90;;;;;;5058239;28;20053;-66
2022/09/09 10:02:43;;;;;;;12.70;4.95;;;17.70;99.90;;;;;;5057969;28;20060;-65
2022/09/09 10:05:21;;;;;;;11.02;4.80;;;17.70;99.90;;;;;;5057646;28;20120;-66
2022/09/09 10:07:59;;;;;;;10.70;5.00;;;17.80;99.90;;;;;;5030565;28;20054;-67
2022/09/09 10:10:36;;;;;;;12.10;4.90;;;17.90;99.90;;;;;;5038356;28;20092;-68
2022/09/09 10:13:23;;;;;;;12.88;4.60;;;17.90;99.90;;;;;;5020764;28;20056;-67
2022/09/09 10:16:02;;;;;;;7.95;4.10;;;18.00;99.90;;;;;;5037764;28;20053;-67
2022/09/09 10:19:00;;;;;;;11.05;4.60;;;17.90;99.90;;;;;;5037852;28;20064;-68
2022/09/09 10:21:41;;;;;;;8.60;4.18;;;18.00;99.90;;;;;;5032873;28;20048;-68
2022/09/09 10:24:44;;;;;;;14.57;4.68;;;18.00;99.90;;;;;;5057054;28;20049;-68
2022/09/09 10:27:18;;;;;;;10.32;3.80;;;18.10;99.90;;;;;;5037644;28;20100;-67
2022/09/09 10:30:02;;;;;;;10.65;3.92;;;18.10;99.90;;;;;;5037330;28;20129;-68
2022/09/09 10:32:52;;;;;;;9.75;4.15;;;18.20;99.90;;;;;;5036992;28;20053;-68
2022/09/09 10:35:53;;;;;;;6.53;3.80;;;18.20;99.90;;;;;;5037890;28;20049;-67
2022/09/09 10:38:38;;;;;;;11.07;4.05;;;18.20;99.90;;;;;;4976502;28;20051;-68
2022/09/09 10:41:16;;;;;;;5.85;3.53;;;18.20;99.90;;;;;;5032479;28;20464;-70
2022/09/09 10:44:06;;;;;;;10.52;3.90;;;18.30;99.90;;;;;;5024394;28;20042;-69
2022/09/09 10:46:51;;;;;;;9.82;3.53;;;18.30;99.90;;;;;;5036803;28;20076;-67
2022/09/09 10:49:49;;;;;;;9.88;3.50;;;18.50;99.90;;;;;;5021168;28;20108;-68
2022/09/09 10:52:29;;;;;;;12.07;3.95;;;18.50;99.90;;;;;;5017484;28;20045;-70
2022/09/09 10:55:10;;;;;;;9.82;3.47;;;18.70;99.90;;;;;;5017149;28;20053;-69
2022/09/09 10:57:59;;;;;;;14.43;4.53;;;18.80;99.90;;;;;;5017476;28;20049;-68
2022/09/09 11:00:45;;;;;;;15.02;3.67;;;19.00;99.90;;;;;;4999649;28;20053;-69
2022/09/09 11:03:25;;;;;;;11.45;3.13;;;19.00;99.90;;;;;;5036888;28;20091;-68
2022/09/09 11:06:01;;;;;;;8.90;3.05;;;19.00;99.90;;;;;;5037222;28;20053;-71
2022/09/09 11:08:29;;;;;;;9.48;3.42;;;19.00;99.90;;;;;;5036961;28;20338;-69
2022/09/09 11:11:20;;;;;;;5.97;3.20;;;19.00;99.90;;;;;;5037161;28;20049;-68
2022/09/09 11:13:52;;;;;;;9.13;3.53;;;19.00;99.90;;;;;;5035285;28;20048;-70
2022/09/09 11:16:36;;;;;;;8.73;3.55;;;19.10;99.90;;;;;;5036854;28;20095;-70
2022/09/09 11:19:35;;;;;;;8.02;3.53;;;19.00;99.90;;;;;;5036654;28;20045;-69
2022/09/09 11:22:15;;;;;;;10.48;3.67;;;19.00;99.90;;;;;;5036539;28;20056;-69
2022/09/09 11:24:50;;;;;;;6.97;2.90;;;19.10;99.90;;;;;;5041319;28;20467;-70
2022/09/09 11:27:21;;;;;;;11.23;3.50;;;19.10;99.90;;;;;;5076713;28;20154;-72
2022/09/09 11:30:19;;;;;;;5.97;2.78;;;19.10;99.90;;;;;;5058879;28;20044;-71
2022/09/09 11:33:13;;;;;;;8.65;2.80;;;19.20;99.90;;;;;;5075992;28;20127;-68
2022/09/09 11:35:45;;;;;;;7.30;3.42;;;19.40;99.90;;;;;;5076636;28;20044;-72
2022/09/09 11:38:21;;;;;;;8.52;3.20;;;19.50;99.90;;;;;;5058695;28;20428;-73
2022/09/09 11:40:53;;;;;;;11.75;3.25;;;19.60;99.90;;;;;;5049413;28;20041;-73
2022/09/09 11:43:38;;;;;;;10.05;3.05;;;19.70;99.90;;;;;;5045228;28;20037;-72
2022/09/09 11:46:04;;;;;;;;;;;19.70;99.90;;;;;;5053581;28;20040;-73
2022/09/09 11:48:34;;;;;;;7.72;2.92;;;19.80;99.90;;;;;;5054516;28;19971;-74
2022/09/09 11:51:07;;;;;;;9.05;3.00;;;19.90;99.90;;;;;;5052790;28;20047;-69
2022/09/09 11:53:53;;;;;;;14.73;4.55;;;19.90;99.90;;;;;;5052949;28;20510;-69
2022/09/09 11:56:44;;;;;;;8.63;3.22;;;20.10;99.90;;;;;;5036975;28;20080;-68
2022/09/09 11:59:29;;;;;;;6.32;2.65;;;20.20;99.90;;;;;;5036949;28;20046;-70
2022/09/09 12:01:59;;;;;;;9.70;3.00;;;20.10;99.90;;;;;;5053469;28;20045;-69
2022/09/09 12:04:25;;;;;;;9.77;3.45;;;20.20;99.90;;;;;;5052696;28;21630;-69
2022/09/09 12:06:58;;;;;;;11.13;3.53;;;20.20;99.90;;;;;;5055665;28;20051;-69
2022/09/09 12:09:51;;;;;;;6.53;2.97;;;20.10;99.90;;;;;;5053125;28;20112;-67
2022/09/09 12:12:26;;;;;;;9.52;3.40;;;19.80;99.90;;;;;;5052199;28;20045;-68
2022/09/09 12:15:07;;;;;;;10.07;3.42;;;19.90;99.90;;;;;;5052149;28;20084;-68
2022/09/09 12:17:42;;;;;;;9.30;3.13;;;19.70;99.90;;;;;;5052478;28;20045;-70
2022/09/09 12:20:22;;;;;;;13.40;3.88;;;19.70;99.90;;;;;;5030464;28;20048;-70
2022/09/09 12:23:04;;;;;;;13.15;3.92;;;19.60;99.90;;;;;;5050806;28;20444;-69
2022/09/09 12:26:01;;;;;;;8.88;3.00;;;19.50;99.90;;;;;;5052078;28;20103;-68
2022/09/09 12:28:43;;;;;;;9.95;3.78;;;19.20;99.90;;;;;;5038872;28;20041;-69
2022/09/09 12:31:24;;;;;;;7.15;3.70;;;19.20;99.90;;;;;;5051547;28;20078;-69
2022/09/09 12:33:52;;;;;;;7.78;3.42;;;19.20;99.90;;;;;;5036466;28;20463;-71
2022/09/09 12:36:29;;;;;;;10.68;4.22;;;19.20;99.90;;;;;;5052197;28;20056;-70
2022/09/09 12:38:58;;;;;;;9.80;3.72;;;19.30;99.90;;;;;;5043272;28;20047;-71
2022/09/09 12:41:28;;;;;;;7.13;3.60;;;19.30;99.90;;;;;;5045820;28;20051;-71
2022/09/09 12:44:10;;;;;;;7.82;4.07;;;19.20;99.90;;;;;;5052523;28;20041;-71
2022/09/09 12:46:42;;;;;;;10.05;4.38;;;19.20;99.90;;;;;;5051295;28;20051;-70
2022/09/09 12:49:34;;;;;;;10.88;3.88;;;19.40;99.90;;;;;;5051670;28;20375;-72
2022/09/09 12:52:21;;;;;;;10.70;3.80;;;19.50;99.90;;;;;;5052639;28;20126;-72
2022/09/09 12:54:47;;;;;;;11.00;3.60;;;19.60;99.90;;;;;;5036279;28;20056;-70
2022/09/09 12:57:14;;;;;;;7.65;2.88;;;20.10;99.90;;;;;;5037259;28;20041;-69
2022/09/09 12:59:42;;;;;;;10.75;3.28;;;20.40;99.90;;;;;;5037151;28;20123;-70
2022/09/09 13:02:25;;;;;;;7.68;2.95;;;20.50;99.90;;;;;;5050445;28;20384;-69